createdAt,value
2023-01-22T00:00:48.887Z,27.50
2023-01-22T00:02:13.756Z,24.20
2023-01-22T00:03:17.471Z,30.50
2023-01-22T00:04:21.169Z,25.00
2023-01-22T00:05:24.895Z,30.20
2023-01-22T00:06:28.835Z,29.20
2023-01-22T00:07:32.849Z,27.50
2023-01-22T00:08:37.277Z,26.30
2023-01-22T00:10:50.149Z,28.30
2023-01-22T00:11:54.006Z,31.20
2023-01-22T00:12:57.651Z,25.20
2023-01-22T00:14:01.521Z,28.30
2023-01-22T00:15:05.796Z,25.50
2023-01-22T00:16:13.547Z,26.70
2023-01-22T00:17:17.734Z,27.50
2023-01-22T00:18:21.444Z,24.00
2023-01-22T00:19:25.134Z,25.20
2023-01-22T00:20:28.959Z,27.30
2023-01-22T00:21:32.651Z,28.30
2023-01-22T00:22:36.955Z,27.50
2023-01-22T00:23:40.724Z,27.60
2023-01-22T00:24:44.482Z,25.80
2023-01-22T00:25:48.618Z,27.70
2023-01-22T00:26:52.300Z,26.90
2023-01-22T00:27:56.475Z,24.30
2023-01-22T00:29:00.196Z,27.10
2023-01-22T00:30:05.302Z,31.40
2023-01-22T00:31:10.482Z,28.60
2023-01-22T00:32:14.588Z,26.20
2023-01-22T00:33:18.301Z,27.50
2023-01-22T00:34:21.944Z,27.10
2023-01-22T00:35:27.008Z,25.30
2023-01-22T00:36:30.739Z,21.80
2023-01-22T00:37:34.467Z,29.10
2023-01-22T00:38:38.466Z,27.50
2023-01-22T00:39:43.731Z,28.70
2023-01-22T00:40:47.493Z,24.50
2023-01-22T00:41:51.608Z,28.20
2023-01-22T00:42:55.249Z,24.90
2023-01-22T00:43:58.879Z,29.30
2023-01-22T00:45:02.532Z,29.00
2023-01-22T00:46:08.509Z,27.60
2023-01-22T00:47:12.262Z,27.10
2023-01-22T00:48:16.515Z,25.20
2023-01-22T00:49:20.230Z,32.20
2023-01-22T00:50:24.038Z,26.90
2023-01-22T00:51:28.086Z,27.70
2023-01-22T00:52:31.969Z,28.60
2023-01-22T00:53:36.979Z,28.10
2023-01-22T00:54:40.732Z,24.20
2023-01-22T00:56:11.669Z,30.40
2023-01-22T00:57:21.663Z,29.30
2023-01-22T00:58:26.267Z,27.80
2023-01-22T00:59:30.312Z,27.30
2023-01-22T01:00:34.277Z,24.20
2023-01-22T01:01:39.374Z,27.70
2023-01-22T01:03:02.219Z,29.40
2023-01-22T01:04:08.130Z,24.30
2023-01-22T01:05:11.745Z,29.80
2023-01-22T01:06:21.265Z,22.70
2023-01-22T01:07:25.075Z,32.60
2023-01-22T01:08:31.269Z,29.80
2023-01-22T01:09:35.039Z,24.80
2023-01-22T01:10:39.029Z,24.70
2023-01-22T01:11:42.755Z,26.10
2023-01-22T01:12:46.470Z,24.70
2023-01-22T01:13:51.399Z,30.30
2023-01-22T01:14:58.329Z,24.50
2023-01-22T01:16:05.400Z,28.00
2023-01-22T01:17:09.136Z,23.00
2023-01-22T01:18:14.302Z,24.00
2023-01-22T01:19:20.508Z,25.80
2023-01-22T01:20:27.429Z,24.80
2023-01-22T01:21:32.166Z,33.80
2023-01-22T01:22:36.017Z,26.90
2023-01-22T01:23:41.244Z,27.20
2023-01-22T01:24:44.876Z,26.70
2023-01-22T01:25:48.548Z,23.80
2023-01-22T01:26:52.197Z,24.70
2023-01-22T01:27:55.835Z,25.40
2023-01-22T01:28:59.620Z,22.90
2023-01-22T01:30:03.560Z,22.50
2023-01-22T01:31:10.532Z,26.50
2023-01-22T01:32:14.215Z,25.20
2023-01-22T01:33:18.011Z,20.80
2023-01-22T01:34:21.968Z,28.20
2023-01-22T01:35:25.728Z,24.20
2023-01-22T01:36:47.571Z,26.30
2023-01-22T01:37:53.477Z,24.20
2023-01-22T01:38:57.810Z,24.10
2023-01-22T01:40:01.600Z,24.20
2023-01-22T01:41:07.754Z,20.40
2023-01-22T01:42:11.689Z,19.70
2023-01-22T01:43:17.414Z,21.20
2023-01-22T01:44:23.563Z,23.10
2023-01-22T01:45:30.454Z,21.30
2023-01-22T01:46:38.816Z,25.60
2023-01-22T01:47:43.377Z,23.20
2023-01-22T01:48:52.865Z,23.60
2023-01-22T01:49:57.174Z,22.60
2023-01-22T01:51:25.693Z,21.90
2023-01-22T01:52:29.496Z,20.40
2023-01-22T01:53:34.871Z,21.10
2023-01-22T01:54:40.492Z,19.40
2023-01-22T01:55:44.300Z,20.50
2023-01-22T01:56:53.200Z,22.90
2023-01-22T01:58:02.462Z,23.20
2023-01-22T01:59:11.943Z,20.20
2023-01-22T02:00:18.243Z,17.30
2023-01-22T02:01:23.048Z,17.70
2023-01-22T02:02:28.297Z,20.60
2023-01-22T02:03:33.404Z,22.20
2023-01-22T02:04:37.616Z,21.20
2023-01-22T02:05:41.370Z,19.90
2023-01-22T02:06:45.059Z,19.90
2023-01-22T02:07:49.420Z,24.40
2023-01-22T02:08:55.052Z,21.60
2023-01-22T02:09:59.004Z,20.80
2023-01-22T02:11:03.301Z,18.10
2023-01-22T02:13:19.201Z,20.80
2023-01-22T02:14:31.805Z,16.70
2023-01-22T02:15:39.070Z,17.10
2023-01-22T02:16:42.886Z,18.80
2023-01-22T02:17:48.133Z,18.70
2023-01-22T02:18:51.823Z,18.30
2023-01-22T02:19:57.080Z,19.10
2023-01-22T02:21:01.256Z,15.80
2023-01-22T02:22:25.692Z,20.10
2023-01-22T02:23:32.188Z,19.80
2023-01-22T02:24:35.979Z,17.70
2023-01-22T02:25:39.692Z,20.20
2023-01-22T02:26:45.480Z,17.90
2023-01-22T02:27:52.491Z,18.20
2023-01-22T02:28:57.750Z,17.60
2023-01-22T02:30:03.963Z,17.20
2023-01-22T02:31:07.765Z,15.60
2023-01-22T02:32:12.758Z,17.10
2023-01-22T02:33:16.725Z,20.80
2023-01-22T02:34:24.500Z,16.50
2023-01-22T02:35:28.354Z,17.90
2023-01-22T02:36:34.334Z,16.70
2023-01-22T02:37:37.985Z,17.50
2023-01-22T02:38:42.576Z,15.60
2023-01-22T02:39:46.598Z,15.60
2023-01-22T02:40:50.315Z,18.90
2023-01-22T02:41:56.398Z,14.90
2023-01-22T02:43:00.647Z,18.20
2023-01-22T02:44:05.026Z,17.90
2023-01-22T02:45:09.358Z,16.50
2023-01-22T02:46:13.095Z,15.60
2023-01-22T02:47:16.828Z,18.50
2023-01-22T02:48:20.563Z,16.50
2023-01-22T02:49:24.291Z,15.80
2023-01-22T02:50:28.097Z,16.60
2023-01-22T02:51:31.968Z,13.90
2023-01-22T02:52:35.688Z,16.20
2023-01-22T02:53:39.420Z,18.50
2023-01-22T02:54:43.078Z,17.30
2023-01-22T02:55:47.118Z,17.30
2023-01-22T02:56:51.027Z,16.10
2023-01-22T02:57:54.772Z,14.50
2023-01-22T02:59:00.811Z,16.70
2023-01-22T03:00:05.243Z,14.90
2023-01-22T03:01:19.069Z,18.90
2023-01-22T03:02:23.494Z,15.30
2023-01-22T03:03:27.657Z,14.70
2023-01-22T03:04:31.430Z,15.90
2023-01-22T03:05:35.214Z,14.20
2023-01-22T03:06:44.216Z,13.20
2023-01-22T03:07:48.053Z,13.80
2023-01-22T03:09:01.143Z,13.10
2023-01-22T03:10:06.218Z,14.20
2023-01-22T03:11:11.639Z,10.20
2023-01-22T03:12:15.331Z,16.00
2023-01-22T03:13:37.939Z,13.80
2023-01-22T03:15:00.544Z,15.10
2023-01-22T03:16:23.608Z,14.60
2023-01-22T03:17:46.275Z,14.00
2023-01-22T03:19:09.185Z,11.90
2023-01-22T03:20:31.769Z,14.70
2023-01-22T03:21:35.399Z,15.90
2023-01-22T03:22:39.150Z,12.40
2023-01-22T03:23:51.444Z,10.80
2023-01-22T03:24:55.796Z,13.00
2023-01-22T03:26:00.478Z,15.10
2023-01-22T03:27:04.651Z,10.00
2023-01-22T03:28:08.675Z,13.50
2023-01-22T03:29:12.963Z,13.10
2023-01-22T03:30:17.203Z,13.40
2023-01-22T03:31:21.286Z,14.30
2023-01-22T03:32:25.739Z,12.10
2023-01-22T03:33:29.519Z,11.20
2023-01-22T03:34:33.275Z,14.50
2023-01-22T03:35:36.960Z,11.70
2023-01-22T03:36:53.491Z,13.60
2023-01-22T03:37:57.191Z,10.20
2023-01-22T03:39:01.258Z,10.70
2023-01-22T03:40:05.861Z,12.60
2023-01-22T03:41:16.551Z,11.70
2023-01-22T03:42:20.758Z,12.30
2023-01-22T03:43:24.495Z,12.80
2023-01-22T03:44:28.317Z,11.20
2023-01-22T03:45:35.677Z,11.60
2023-01-22T03:46:40.549Z,12.60
2023-01-22T03:47:44.295Z,11.70
2023-01-22T03:49:09.498Z,13.30
2023-01-22T03:50:13.364Z,13.70
2023-01-22T03:51:18.530Z,11.70
2023-01-22T03:52:22.264Z,12.10
2023-01-22T03:53:26.015Z,12.60
2023-01-22T03:54:29.742Z,14.40
2023-01-22T03:55:33.857Z,11.60
2023-01-22T03:56:37.607Z,11.90
2023-01-22T03:57:44.788Z,11.30
2023-01-22T03:58:50.348Z,13.00
2023-01-22T03:59:54.226Z,9.90
2023-01-22T04:01:02.203Z,12.70
2023-01-22T04:02:06.347Z,13.30
2023-01-22T04:03:12.971Z,10.70
2023-01-22T04:04:16.826Z,13.50
2023-01-22T04:05:20.949Z,11.20
2023-01-22T04:06:24.951Z,12.60
2023-01-22T04:07:28.832Z,11.80
2023-01-22T04:08:34.390Z,13.10
2023-01-22T04:09:38.266Z,15.30
2023-01-22T04:10:42.829Z,13.00
2023-01-22T04:12:52.399Z,11.90
2023-01-22T04:13:58.419Z,12.10
2023-01-22T04:15:05.724Z,12.80
2023-01-22T04:16:10.416Z,10.90
2023-01-22T04:17:36.689Z,10.60
2023-01-22T04:18:49.285Z,10.30
2023-01-22T04:20:16.405Z,10.60
2023-01-22T04:21:47.045Z,12.30
2023-01-22T04:22:51.814Z,10.50
2023-01-22T04:23:56.612Z,12.20
2023-01-22T04:25:00.290Z,11.60
2023-01-22T04:26:04.215Z,9.50
2023-01-22T04:27:08.001Z,12.20
2023-01-22T04:28:12.469Z,10.00
2023-01-22T04:29:16.093Z,11.10
2023-01-22T04:30:20.607Z,13.00
2023-01-22T04:31:27.405Z,12.00
2023-01-22T04:32:48.560Z,12.60
2023-01-22T04:34:15.116Z,9.70
2023-01-22T04:35:23.104Z,9.90
2023-01-22T04:36:30.713Z,12.30
2023-01-22T04:37:34.346Z,12.30
2023-01-22T04:38:38.040Z,10.30
2023-01-22T04:39:41.684Z,11.50
2023-01-22T04:40:45.452Z,10.30
2023-01-22T04:41:49.045Z,11.00
2023-01-22T04:42:52.789Z,9.90
2023-01-22T04:43:56.850Z,12.50
2023-01-22T04:45:02.092Z,13.60
2023-01-22T04:46:07.207Z,11.00
2023-01-22T04:48:16.423Z,10.90
2023-01-22T04:49:20.440Z,12.30
2023-01-22T04:50:29.419Z,12.30
2023-01-22T04:51:33.641Z,10.40
2023-01-22T04:52:37.334Z,8.70
2023-01-22T04:53:42.351Z,10.00
2023-01-22T04:54:46.077Z,11.70
2023-01-22T04:55:49.978Z,10.90
2023-01-22T04:56:53.625Z,9.10
2023-01-22T04:57:59.355Z,10.00
2023-01-22T04:59:03.106Z,13.40
2023-01-22T05:00:10.136Z,9.80
2023-01-22T05:01:13.842Z,9.50
2023-01-22T05:02:17.619Z,10.40
2023-01-22T05:03:22.260Z,13.00
2023-01-22T05:04:25.950Z,10.10
2023-01-22T05:05:31.419Z,12.00
2023-01-22T05:06:35.163Z,10.10
2023-01-22T05:07:39.075Z,11.20
2023-01-22T05:08:42.864Z,11.90
2023-01-22T05:09:47.544Z,10.60
2023-01-22T05:10:51.333Z,9.90
2023-01-22T05:12:01.126Z,9.30
2023-01-22T05:13:09.394Z,11.70
2023-01-22T05:14:15.548Z,13.20
2023-01-22T05:16:30.881Z,9.00
2023-01-22T05:17:34.595Z,11.60
2023-01-22T05:18:38.224Z,10.20
2023-01-22T05:19:42.090Z,13.10
2023-01-22T05:20:49.740Z,10.50
2023-01-22T05:22:57.809Z,8.60
2023-01-22T05:25:07.137Z,11.20
2023-01-22T05:26:10.824Z,9.30
2023-01-22T05:27:29.477Z,9.80
2023-01-22T05:28:43.972Z,9.80
2023-01-22T05:29:55.608Z,10.40
2023-01-22T05:31:14.821Z,9.90
2023-01-22T05:32:39.002Z,11.60
2023-01-22T05:33:44.312Z,9.00
2023-01-22T05:34:49.154Z,9.50
2023-01-22T05:35:57.494Z,8.40
2023-01-22T05:37:01.103Z,9.80
2023-01-22T05:38:07.172Z,7.80
2023-01-22T05:39:10.836Z,9.70
2023-01-22T05:40:14.714Z,10.50
2023-01-22T05:41:20.027Z,10.10
2023-01-22T05:42:23.842Z,11.20
2023-01-22T05:43:27.521Z,10.00
2023-01-22T05:44:36.772Z,9.30
2023-01-22T05:45:40.386Z,9.20
2023-01-22T05:47:03.335Z,8.40
2023-01-22T05:48:21.769Z,8.90
2023-01-22T05:49:31.254Z,9.10
2023-01-22T05:50:36.619Z,9.50
2023-01-22T05:51:45.649Z,10.50
2023-01-22T05:52:54.457Z,9.60
2023-01-22T05:53:58.308Z,8.80
2023-01-22T05:55:06.313Z,11.40
2023-01-22T05:56:17.371Z,13.90
2023-01-22T05:57:21.279Z,11.60
2023-01-22T05:59:29.730Z,7.90
2023-01-22T06:00:37.695Z,12.70
2023-01-22T06:01:41.566Z,10.10
2023-01-22T06:02:45.742Z,10.30
2023-01-22T06:03:50.517Z,11.70
2023-01-22T06:04:55.698Z,7.90
2023-01-22T06:06:04.953Z,8.70
2023-01-22T06:07:08.930Z,9.60
2023-01-22T06:08:12.722Z,9.70
2023-01-22T06:09:21.728Z,10.30
2023-01-22T06:10:25.380Z,11.40
2023-01-22T06:11:29.064Z,9.10
2023-01-22T06:12:33.129Z,9.00
2023-01-22T06:13:37.257Z,8.90
2023-01-22T06:14:46.743Z,8.60
2023-01-22T06:15:50.349Z,11.40
2023-01-22T06:17:07.935Z,13.40
2023-01-22T06:18:30.788Z,9.00
2023-01-22T06:19:34.529Z,9.40
2023-01-22T06:20:38.275Z,9.30
2023-01-22T06:21:44.572Z,9.20
2023-01-22T06:22:51.029Z,10.40
2023-01-22T06:23:54.646Z,11.00
2023-01-22T06:24:58.343Z,9.90
2023-01-22T06:26:05.041Z,11.00
2023-01-22T06:27:08.813Z,11.00
2023-01-22T06:28:25.409Z,11.30
2023-01-22T06:29:29.023Z,8.60
2023-01-22T06:30:32.863Z,8.90
2023-01-22T06:31:37.675Z,12.00
2023-01-22T06:32:43.710Z,11.00
2023-01-22T06:33:48.956Z,9.60
2023-01-22T06:34:52.825Z,10.80
2023-01-22T06:35:57.116Z,8.40
2023-01-22T06:37:00.966Z,15.70
2023-01-22T06:38:06.607Z,9.70
2023-01-22T06:39:10.621Z,12.40
2023-01-22T06:40:21.160Z,11.20
2023-01-22T06:41:26.384Z,9.00
2023-01-22T06:42:32.863Z,8.60
2023-01-22T06:43:37.763Z,13.60
2023-01-22T06:44:41.456Z,10.80
2023-01-22T06:45:45.090Z,11.40
2023-01-22T06:46:48.943Z,10.70
2023-01-22T06:47:58.556Z,10.80
2023-01-22T06:49:02.654Z,9.70
2023-01-22T06:50:06.530Z,9.10
2023-01-22T06:51:11.238Z,11.10
2023-01-22T06:52:15.014Z,10.90
2023-01-22T06:53:18.687Z,11.10
2023-01-22T06:54:22.529Z,10.40
2023-01-22T06:55:26.407Z,9.90
2023-01-22T06:56:30.403Z,9.20
2023-01-22T06:57:34.743Z,9.80
2023-01-22T06:58:38.416Z,10.90
2023-01-22T06:59:42.276Z,10.20
2023-01-22T07:00:45.985Z,10.20
2023-01-22T07:01:49.744Z,17.10
2023-01-22T07:02:54.720Z,11.20
2023-01-22T07:03:58.441Z,12.90
2023-01-22T07:05:02.182Z,11.40
2023-01-22T07:06:06.001Z,11.10
2023-01-22T07:07:09.676Z,11.30
2023-01-22T07:08:15.502Z,11.50
2023-01-22T07:09:19.181Z,11.40
2023-01-22T07:10:22.900Z,10.40
2023-01-22T07:11:26.500Z,10.90
2023-01-22T07:12:30.306Z,10.10
2023-01-22T07:13:33.997Z,11.50
2023-01-22T07:14:37.951Z,10.40
2023-01-22T07:15:42.664Z,12.20
2023-01-22T07:17:52.236Z,11.40
2023-01-22T07:18:55.988Z,9.70
2023-01-22T07:19:59.712Z,11.00
2023-01-22T07:21:05.523Z,8.90
2023-01-22T07:22:09.419Z,12.50
2023-01-22T07:23:13.473Z,10.30
2023-01-22T07:24:17.505Z,12.60
2023-01-22T07:25:21.110Z,10.80
2023-01-22T07:26:24.702Z,11.10
2023-01-22T07:27:28.508Z,9.80
2023-01-22T07:28:33.078Z,14.10
2023-01-22T07:30:42.605Z,12.40
2023-01-22T07:31:49.595Z,11.60
2023-01-22T07:32:53.816Z,12.30
2023-01-22T07:33:57.580Z,13.50
2023-01-22T07:35:01.484Z,11.10
2023-01-22T07:36:05.922Z,13.10
2023-01-22T07:37:11.865Z,11.70
2023-01-22T07:38:15.519Z,12.30
2023-01-22T07:39:19.222Z,10.90
2023-01-22T07:40:26.717Z,13.10
2023-01-22T07:41:30.437Z,14.40
2023-01-22T07:43:41.282Z,10.30
2023-01-22T07:44:46.291Z,10.90
2023-01-22T07:45:50.026Z,8.80
2023-01-22T07:46:53.904Z,11.10
2023-01-22T07:47:59.522Z,12.10
2023-01-22T07:49:03.241Z,9.20
2023-01-22T07:50:08.850Z,10.80
2023-01-22T07:51:12.770Z,11.20
2023-01-22T07:52:16.610Z,10.80
2023-01-22T07:53:20.383Z,10.40
2023-01-22T07:54:24.337Z,10.40
2023-01-22T07:55:28.976Z,10.70
2023-01-22T07:56:32.775Z,11.10
2023-01-22T07:57:36.583Z,11.60
2023-01-22T07:58:41.298Z,12.20
2023-01-22T07:59:45.322Z,9.40
2023-01-22T08:00:50.123Z,11.10
2023-01-22T08:01:55.218Z,13.40
2023-01-22T08:02:59.326Z,9.00
2023-01-22T08:04:03.183Z,9.70
2023-01-22T08:05:07.987Z,11.30
2023-01-22T08:06:15.671Z,11.70
2023-01-22T08:07:19.785Z,10.60
2023-01-22T08:08:23.811Z,8.30
2023-01-22T08:09:27.751Z,8.80
2023-01-22T08:10:31.797Z,10.80
2023-01-22T08:11:35.538Z,10.70
2023-01-22T08:12:41.408Z,8.90
2023-01-22T08:13:45.368Z,12.00
2023-01-22T08:14:49.162Z,9.80
2023-01-22T08:15:55.032Z,9.80
2023-01-22T08:16:58.803Z,11.80
2023-01-22T08:18:02.540Z,11.70
2023-01-22T08:19:06.336Z,10.20
2023-01-22T08:20:11.105Z,10.40
2023-01-22T08:22:18.537Z,9.10
2023-01-22T08:23:22.288Z,8.80
2023-01-22T08:24:25.961Z,12.20
2023-01-22T08:25:29.671Z,9.60
2023-01-22T08:26:33.634Z,12.70
2023-01-22T08:27:37.490Z,14.00
2023-01-22T08:28:41.175Z,10.10
2023-01-22T08:29:44.910Z,64.40
2023-01-22T08:30:49.919Z,15.90
2023-01-22T08:31:53.853Z,13.90
2023-01-22T08:32:57.735Z,8.90
2023-01-22T08:34:01.334Z,10.80
2023-01-22T08:35:05.431Z,9.40
2023-01-22T08:36:09.281Z,9.80
2023-01-22T08:37:13.145Z,12.10
2023-01-22T08:38:16.802Z,12.40
2023-01-22T08:39:20.541Z,9.50
2023-01-22T08:40:24.397Z,11.20
2023-01-22T08:41:28.116Z,11.10
2023-01-22T08:42:32.157Z,12.10
2023-01-22T08:43:35.808Z,13.50
2023-01-22T08:44:39.574Z,9.90
2023-01-22T08:45:45.223Z,12.30
2023-01-22T08:46:48.971Z,10.10
2023-01-22T08:47:58.873Z,9.90
2023-01-22T08:49:06.558Z,11.60
2023-01-22T08:50:10.809Z,12.90
2023-01-22T08:51:14.764Z,11.60
2023-01-22T08:52:18.483Z,13.10
2023-01-22T08:53:22.236Z,11.50
2023-01-22T08:54:26.235Z,12.90
2023-01-22T08:55:30.313Z,13.50
2023-01-22T08:56:34.172Z,11.70
2023-01-22T08:57:37.902Z,11.20
2023-01-22T08:58:41.912Z,13.50
2023-01-22T08:59:59.772Z,11.90
2023-01-22T09:01:04.580Z,9.70
2023-01-22T09:02:13.390Z,13.90
2023-01-22T09:03:17.268Z,9.70
2023-01-22T09:04:20.952Z,10.20
2023-01-22T09:05:24.615Z,12.60
2023-01-22T09:06:28.489Z,13.60
2023-01-22T09:07:32.204Z,11.20
2023-01-22T09:08:36.008Z,12.10
2023-01-22T09:09:39.682Z,11.60
2023-01-22T09:10:44.526Z,13.30
2023-01-22T09:11:48.221Z,10.50
2023-01-22T09:12:51.964Z,10.30
2023-01-22T09:13:57.076Z,14.30
2023-01-22T09:15:00.777Z,21.10
2023-01-22T09:16:06.088Z,42.80
2023-01-22T09:17:09.789Z,15.60
2023-01-22T09:18:13.573Z,12.80
2023-01-22T09:19:17.330Z,12.60
2023-01-22T09:20:21.405Z,10.10
2023-01-22T09:21:25.293Z,9.90
2023-01-22T09:22:29.168Z,10.10
2023-01-22T09:23:32.959Z,13.80
2023-01-22T09:24:36.624Z,10.80
2023-01-22T09:25:40.344Z,11.70
2023-01-22T09:26:44.014Z,11.90
2023-01-22T09:27:47.743Z,12.00
2023-01-22T09:28:51.523Z,11.60
2023-01-22T09:29:55.200Z,12.30
2023-01-22T09:30:59.051Z,9.60
2023-01-22T09:32:02.864Z,11.10
2023-01-22T09:33:06.748Z,10.00
2023-01-22T09:34:10.455Z,11.30
2023-01-22T09:35:16.492Z,9.70
2023-01-22T09:36:20.392Z,12.20
2023-01-22T09:37:25.354Z,11.20
2023-01-22T09:38:29.018Z,12.10
2023-01-22T09:39:32.654Z,13.40
2023-01-22T09:40:44.920Z,13.00
2023-01-22T09:41:52.434Z,10.90
2023-01-22T09:43:04.801Z,10.10
2023-01-22T09:44:17.651Z,11.00
2023-01-22T09:45:25.418Z,12.10
2023-01-22T09:46:43.252Z,11.80
2023-01-22T09:47:50.233Z,10.90
2023-01-22T09:48:57.855Z,9.60
2023-01-22T09:50:06.223Z,9.60
2023-01-22T09:51:14.239Z,9.00
2023-01-22T09:52:18.095Z,9.10
2023-01-22T09:53:22.015Z,10.90
2023-01-22T09:54:26.536Z,10.90
2023-01-22T09:55:32.944Z,11.30
2023-01-22T09:56:42.707Z,10.60
2023-01-22T09:57:48.857Z,11.50
2023-01-22T09:58:53.552Z,8.90
2023-01-22T09:59:58.182Z,12.10
2023-01-22T10:01:05.648Z,12.80
2023-01-22T10:02:30.902Z,12.80
2023-01-22T10:03:39.311Z,10.30
2023-01-22T10:04:46.213Z,13.20
2023-01-22T10:05:57.926Z,11.70
2023-01-22T10:07:04.521Z,9.60
2023-01-22T10:08:22.764Z,11.70
2023-01-22T10:09:31.191Z,12.40
2023-01-22T10:10:35.412Z,11.60
2023-01-22T10:11:39.799Z,10.30
2023-01-22T10:12:43.501Z,9.80
2023-01-22T10:13:51.107Z,10.90
2023-01-22T10:14:55.452Z,9.70
2023-01-22T10:15:59.921Z,10.70
2023-01-22T10:17:04.802Z,10.90
2023-01-22T10:18:31.556Z,25.00
2023-01-22T10:19:43.218Z,115.50
2023-01-22T10:20:47.523Z,20.40
2023-01-22T10:22:01.573Z,11.90
2023-01-22T10:23:16.985Z,12.10
2023-01-22T10:24:20.723Z,10.80
2023-01-22T10:25:24.519Z,10.10
2023-01-22T10:26:32.883Z,13.20
2023-01-22T10:27:41.127Z,11.00
2023-01-22T10:28:54.361Z,11.00
2023-01-22T10:30:18.998Z,13.60
2023-01-22T10:31:27.317Z,11.00
2023-01-22T10:32:32.104Z,10.50
2023-01-22T10:33:38.909Z,9.40
2023-01-22T10:34:42.634Z,11.00
2023-01-22T10:35:48.584Z,12.10
2023-01-22T10:36:54.223Z,10.30
2023-01-22T10:37:59.767Z,10.10
2023-01-22T10:39:06.604Z,13.30
2023-01-22T10:40:35.069Z,11.20
2023-01-22T10:41:43.003Z,12.90
2023-01-22T10:42:48.511Z,10.90
2023-01-22T10:43:52.124Z,11.90
2023-01-22T10:44:58.276Z,13.10
2023-01-22T10:46:20.621Z,11.50
2023-01-22T10:47:27.637Z,17.00
2023-01-22T10:48:31.676Z,13.20
2023-01-22T10:49:35.770Z,11.40
2023-01-22T10:50:40.320Z,13.10
2023-01-22T10:51:50.026Z,12.70
2023-01-22T10:52:55.324Z,12.20
2023-01-22T10:53:59.599Z,10.60
2023-01-22T10:55:04.238Z,12.50
2023-01-22T10:56:12.570Z,11.10
2023-01-22T10:57:26.942Z,11.00
2023-01-22T10:58:34.405Z,13.00
2023-01-22T10:59:38.424Z,11.60
2023-01-22T11:00:51.852Z,11.30
2023-01-22T11:02:11.494Z,10.50
2023-01-22T11:03:31.847Z,11.20
2023-01-22T11:04:35.758Z,13.10
2023-01-22T11:05:44.402Z,11.50
2023-01-22T11:06:51.419Z,9.90
2023-01-22T11:08:03.362Z,13.30
2023-01-22T11:09:15.095Z,12.10
2023-01-22T11:10:39.657Z,11.70
2023-01-22T11:11:48.870Z,13.50
2023-01-22T11:13:13.449Z,10.80
2023-01-22T11:14:32.413Z,9.40
2023-01-22T11:15:48.576Z,9.60
2023-01-22T11:16:56.845Z,10.50
2023-01-22T11:18:02.318Z,10.40
2023-01-22T11:19:32.365Z,10.40
2023-01-22T11:20:54.008Z,9.10
2023-01-22T11:21:58.613Z,11.40
2023-01-22T11:23:11.104Z,11.80
2023-01-22T11:24:38.960Z,10.20
2023-01-22T11:26:16.776Z,12.50
2023-01-22T11:27:52.523Z,12.10
2023-01-22T11:29:08.442Z,12.30
2023-01-22T11:30:39.104Z,9.60
2023-01-22T11:32:07.475Z,10.60
2023-01-22T11:33:17.091Z,10.00
2023-01-22T11:34:33.206Z,10.60
2023-01-22T11:35:43.922Z,11.90
2023-01-22T11:37:14.305Z,10.10
2023-01-22T11:38:32.916Z,7.60
2023-01-22T11:39:49.569Z,10.40
2023-01-22T11:41:19.417Z,9.50
2023-01-22T11:42:23.081Z,12.80
2023-01-22T11:43:47.701Z,43.50
2023-01-22T11:45:09.574Z,14.50
2023-01-22T11:46:31.014Z,9.60
2023-01-22T11:47:37.483Z,8.20
2023-01-22T11:48:59.724Z,9.90
2023-01-22T11:50:29.326Z,14.10
2023-01-22T11:51:42.262Z,10.70
2023-01-22T11:53:27.235Z,9.70
2023-01-22T11:54:36.676Z,9.40
2023-01-22T11:56:04.623Z,10.80
2023-01-22T11:57:24.389Z,10.00
2023-01-22T11:58:35.530Z,9.90
2023-01-22T11:59:57.592Z,11.00
2023-01-22T12:01:38.647Z,9.40
2023-01-22T12:03:19.304Z,11.50
2023-01-22T12:04:45.599Z,8.10
2023-01-22T12:06:16.522Z,9.80
2023-01-22T12:07:45.603Z,10.50
2023-01-22T12:09:09.389Z,7.80
2023-01-22T12:12:53.765Z,10.80
2023-01-22T12:14:10.676Z,8.80
2023-01-22T12:15:14.492Z,12.10
2023-01-22T12:16:28.100Z,9.70
2023-01-22T12:17:50.732Z,14.30
2023-01-22T12:19:15.150Z,11.40
2023-01-22T12:20:40.686Z,10.00
2023-01-22T12:22:09.309Z,11.80
2023-01-22T12:23:33.915Z,9.90
2023-01-22T12:24:44.548Z,11.10
2023-01-22T12:26:01.937Z,14.50
2023-01-22T12:27:29.222Z,14.20
2023-01-22T12:28:42.218Z,9.00
2023-01-22T12:30:05.341Z,11.80
2023-01-22T12:31:15.168Z,11.90
2023-01-22T12:32:21.538Z,10.70
2023-01-22T12:33:31.957Z,11.60
2023-01-22T12:34:49.340Z,9.60
2023-01-22T12:37:01.256Z,9.30
2023-01-22T12:38:15.309Z,9.50
2023-01-22T12:39:38.406Z,12.30
2023-01-22T12:41:01.985Z,11.10
2023-01-22T12:42:22.899Z,13.40
2023-01-22T12:43:43.842Z,8.90
2023-01-22T12:45:06.985Z,14.60
2023-01-22T12:46:25.064Z,10.50
2023-01-22T12:47:29.401Z,11.60
2023-01-22T12:48:37.852Z,13.10
2023-01-22T12:49:46.964Z,11.10
2023-01-22T12:50:53.867Z,12.80
2023-01-22T12:52:00.257Z,11.40
2023-01-22T12:53:06.518Z,12.40
2023-01-22T12:54:19.460Z,9.70
2023-01-22T12:55:36.118Z,14.20
2023-01-22T12:56:39.763Z,11.10
2023-01-22T12:57:43.401Z,9.80
2023-01-22T12:58:56.724Z,11.70
2023-01-22T13:00:30.272Z,11.60
2023-01-22T13:01:35.843Z,10.60
2023-01-22T13:02:40.128Z,13.10
2023-01-22T13:03:43.947Z,9.20
2023-01-22T13:04:50.884Z,11.10
2023-01-22T13:05:56.139Z,8.30
2023-01-22T13:07:05.353Z,11.30
2023-01-22T13:08:18.218Z,11.20
2023-01-22T13:09:27.374Z,9.90
2023-01-22T13:10:36.801Z,11.60
2023-01-22T13:11:41.248Z,11.70
2023-01-22T13:12:57.573Z,10.30
2023-01-22T13:14:28.186Z,11.70
2023-01-22T13:15:36.905Z,11.40
2023-01-22T13:16:41.461Z,12.70
2023-01-22T13:18:57.580Z,10.60
2023-01-22T13:20:03.460Z,10.70
2023-01-22T13:21:11.378Z,11.80
2023-01-22T13:22:24.030Z,10.80
2023-01-22T13:23:28.285Z,10.00
2023-01-22T13:24:31.959Z,12.80
2023-01-22T13:25:35.864Z,10.90
2023-01-22T13:26:39.593Z,12.80
2023-01-22T13:27:46.884Z,12.70
2023-01-22T13:28:52.403Z,11.30
2023-01-22T13:30:13.781Z,10.10
2023-01-22T13:31:17.742Z,10.80
2023-01-22T13:32:22.850Z,10.00
2023-01-22T13:33:27.329Z,11.80
2023-01-22T13:34:31.483Z,9.80
2023-01-22T13:35:36.999Z,9.70
2023-01-22T13:36:45.603Z,8.60
2023-01-22T13:37:51.615Z,10.40
2023-01-22T13:38:57.542Z,9.80
2023-01-22T13:40:29.274Z,9.90
2023-01-22T13:41:38.593Z,10.30
2023-01-22T13:42:45.802Z,10.00
2023-01-22T13:43:49.509Z,9.60
2023-01-22T13:44:53.508Z,12.20
2023-01-22T13:45:58.277Z,9.70
2023-01-22T13:47:03.105Z,13.50
2023-01-22T13:48:06.869Z,13.80
2023-01-22T13:49:30.245Z,11.70
2023-01-22T13:50:35.275Z,12.90
2023-01-22T13:51:40.510Z,13.10
2023-01-22T13:52:44.354Z,10.10
2023-01-22T13:53:53.068Z,11.60
2023-01-22T13:55:15.871Z,13.00
2023-01-22T13:56:22.971Z,12.20
2023-01-22T13:57:26.728Z,12.20
2023-01-22T13:58:48.436Z,13.70
2023-01-22T13:59:58.250Z,11.60
2023-01-22T14:01:03.303Z,14.70
2023-01-22T14:02:19.432Z,12.00
2023-01-22T14:03:25.863Z,13.50
2023-01-22T14:04:35.384Z,11.30
2023-01-22T14:05:39.133Z,11.20
2023-01-22T14:06:49.670Z,11.90
2023-01-22T14:08:11.409Z,14.40
2023-01-22T14:09:30.137Z,11.50
2023-01-22T14:10:34.190Z,11.60
2023-01-22T14:11:39.344Z,10.30
2023-01-22T14:12:43.117Z,14.40
2023-01-22T14:13:49.494Z,13.10
2023-01-22T14:14:54.505Z,12.50
2023-01-22T14:16:01.556Z,12.10
2023-01-22T14:17:05.343Z,11.40
2023-01-22T14:18:10.431Z,13.00
2023-01-22T14:19:14.458Z,12.30
2023-01-22T14:20:18.601Z,12.10
2023-01-22T14:21:22.429Z,11.90
2023-01-22T14:22:26.551Z,13.50
2023-01-22T14:23:30.251Z,11.60
2023-01-22T14:24:34.100Z,12.70
2023-01-22T14:25:39.674Z,12.80
2023-01-22T14:26:43.304Z,11.40
2023-01-22T14:27:49.290Z,11.00
2023-01-22T14:28:52.916Z,13.10
2023-01-22T14:29:56.492Z,13.80
2023-01-22T14:31:00.676Z,11.30
2023-01-22T14:32:04.791Z,9.90
2023-01-22T14:33:24.233Z,12.10
2023-01-22T14:34:28.129Z,11.90
2023-01-22T14:35:31.786Z,12.20
2023-01-22T14:36:35.420Z,11.80
2023-01-22T14:37:40.170Z,14.80
2023-01-22T14:39:48.769Z,13.20
2023-01-22T14:40:52.970Z,11.70
2023-01-22T14:41:56.712Z,13.60
2023-01-22T14:43:01.289Z,11.20
2023-01-22T14:44:05.053Z,12.30
2023-01-22T14:45:10.422Z,12.20
2023-01-22T14:46:14.146Z,12.10
2023-01-22T14:47:17.800Z,13.30
2023-01-22T14:48:21.959Z,13.30
2023-01-22T14:49:25.770Z,13.00
2023-01-22T14:50:29.880Z,11.80
2023-01-22T14:51:33.569Z,14.10
2023-01-22T14:52:37.738Z,11.20
2023-01-22T14:53:41.544Z,13.00
2023-01-22T14:54:45.291Z,10.70